sensor_id;sensor_type;location;lat;lon;timestamp;P1;durP1;ratioP1;P2;durP2;ratioP2
3849;SDS011;1940;51.052;13.678;2022-12-22T00:01:10;28.17;;;12.10;;
3849;SDS011;1940;51.052;13.678;2022-12-22T00:03:56;22.40;;;11.27;;
3849;SDS011;1940;51.052;13.678;2022-12-22T00:06:41;30.17;;;12.50;;
3849;SDS011;1940;51.052;13.678;2022-12-22T00:09:25;22.97;;;11.67;;
3849;SDS011;1940;51.052;13.678;2022-12-22T00:12:10;24.37;;;10.70;;
3849;SDS011;1940;51.052;13.678;2022-12-22T00:14:56;21.20;;;11.47;;
3849;SDS011;1940;51.052;13.678;2022-12-22T00:17:41;23.13;;;10.97;;
3849;SDS011;1940;51.052;13.678;2022-12-22T00:20:25;23.37;;;11.30;;
3849;SDS011;1940;51.052;13.678;2022-12-22T00:23:10;24.63;;;11.03;;
3849;SDS011;1940;51.052;13.678;2022-12-22T00:25:54;20.93;;;10.10;;
3849;SDS011;1940;51.052;13.678;2022-12-22T00:28:39;21.30;;;10.43;;
3849;SDS011;1940;51.052;13.678;2022-12-22T00:31:25;23.90;;;11.83;;
3849;SDS011;1940;51.052;13.678;2022-12-22T00:34:15;19.07;;;9.43;;
3849;SDS011;1940;51.052;13.678;2022-12-22T00:37:02;23.30;;;11.27;;
3849;SDS011;1940;51.052;13.678;2022-12-22T00:39:47;23.30;;;10.60;;
3849;SDS011;1940;51.052;13.678;2022-12-22T00:42:31;24.90;;;11.03;;
3849;SDS011;1940;51.052;13.678;2022-12-22T00:45:16;21.50;;;10.83;;
3849;SDS011;1940;51.052;13.678;2022-12-22T00:48:00;21.57;;;10.17;;
3849;SDS011;1940;51.052;13.678;2022-12-22T00:50:44;23.97;;;10.00;;
3849;SDS011;1940;51.052;13.678;2022-12-22T00:53:28;31.57;;;11.17;;
3849;SDS011;1940;51.052;13.678;2022-12-22T00:56:13;22.53;;;10.83;;
3849;SDS011;1940;51.052;13.678;2022-12-22T00:58:57;27.83;;;11.60;;
3849;SDS011;1940;51.052;13.678;2022-12-22T01:01:43;22.67;;;11.13;;
3849;SDS011;1940;51.052;13.678;2022-12-22T01:04:27;26.13;;;11.40;;
3849;SDS011;1940;51.052;13.678;2022-12-22T01:07:11;25.13;;;10.20;;
3849;SDS011;1940;51.052;13.678;2022-12-22T01:09:58;24.90;;;11.23;;
3849;SDS011;1940;51.052;13.678;2022-12-22T01:12:42;23.10;;;10.70;;
3849;SDS011;1940;51.052;13.678;2022-12-22T01:15:28;21.13;;;10.20;;
3849;SDS011;1940;51.052;13.678;2022-12-22T01:18:13;24.07;;;11.07;;
3849;SDS011;1940;51.052;13.678;2022-12-22T01:20:57;16.73;;;9.60;;
3849;SDS011;1940;51.052;13.678;2022-12-22T01:23:41;22.30;;;10.27;;
3849;SDS011;1940;51.052;13.678;2022-12-22T01:26:26;21.30;;;10.23;;
3849;SDS011;1940;51.052;13.678;2022-12-22T01:29:10;20.13;;;10.47;;
3849;SDS011;1940;51.052;13.678;2022-12-22T01:31:55;20.90;;;10.43;;
3849;SDS011;1940;51.052;13.678;2022-12-22T01:34:39;24.30;;;10.40;;
3849;SDS011;1940;51.052;13.678;2022-12-22T01:37:24;21.27;;;10.40;;
3849;SDS011;1940;51.052;13.678;2022-12-22T01:40:18;22.77;;;10.63;;
3849;SDS011;1940;51.052;13.678;2022-12-22T01:43:18;23.77;;;10.50;;
3849;SDS011;1940;51.052;13.678;2022-12-22T01:46:24;22.33;;;10.80;;
3849;SDS011;1940;51.052;13.678;2022-12-22T01:49:11;21.87;;;10.27;;
3849;SDS011;1940;51.052;13.678;2022-12-22T01:52:03;17.30;;;9.20;;
3849;SDS011;1940;51.052;13.678;2022-12-22T01:54:48;19.93;;;9.53;;
3849;SDS011;1940;51.052;13.678;2022-12-22T01:57:33;26.03;;;11.20;;
3849;SDS011;1940;51.052;13.678;2022-12-22T02:00:17;18.67;;;9.07;;
3849;SDS011;1940;51.052;13.678;2022-12-22T02:03:02;19.93;;;9.40;;
3849;SDS011;1940;51.052;13.678;2022-12-22T02:05:54;20.33;;;9.93;;
3849;SDS011;1940;51.052;13.678;2022-12-22T02:09:10;17.63;;;9.70;;
3849;SDS011;1940;51.052;13.678;2022-12-22T02:14:53;18.73;;;10.00;;
3849;SDS011;1940;51.052;13.678;2022-12-22T02:18:04;23.83;;;9.90;;
3849;SDS011;1940;51.052;13.678;2022-12-22T02:21:04;18.93;;;9.43;;
3849;SDS011;1940;51.052;13.678;2022-12-22T02:24:07;19.70;;;10.00;;
3849;SDS011;1940;51.052;13.678;2022-12-22T02:27:04;19.20;;;9.50;;
3849;SDS011;1940;51.052;13.678;2022-12-22T02:29:51;15.10;;;9.30;;
3849;SDS011;1940;51.052;13.678;2022-12-22T02:32:39;19.80;;;10.13;;
3849;SDS011;1940;51.052;13.678;2022-12-22T02:35:25;18.83;;;9.70;;
3849;SDS011;1940;51.052;13.678;2022-12-22T02:45:10;15.60;;;8.67;;
3849;SDS011;1940;51.052;13.678;2022-12-22T02:48:03;22.17;;;9.63;;
3849;SDS011;1940;51.052;13.678;2022-12-22T02:51:05;16.83;;;9.23;;
3849;SDS011;1940;51.052;13.678;2022-12-22T02:53:53;18.17;;;9.50;;
3849;SDS011;1940;51.052;13.678;2022-12-22T02:56:39;20.90;;;9.50;;
3849;SDS011;1940;51.052;13.678;2022-12-22T02:59:24;19.20;;;10.20;;
3849;SDS011;1940;51.052;13.678;2022-12-22T03:02:08;15.50;;;9.03;;
3849;SDS011;1940;51.052;13.678;2022-12-22T03:04:52;22.60;;;10.43;;
3849;SDS011;1940;51.052;13.678;2022-12-22T03:07:36;16.80;;;9.60;;
3849;SDS011;1940;51.052;13.678;2022-12-22T03:10:21;19.17;;;9.27;;
3849;SDS011;1940;51.052;13.678;2022-12-22T03:13:05;14.83;;;8.43;;
3849;SDS011;1940;51.052;13.678;2022-12-22T03:15:49;21.70;;;9.70;;
3849;SDS011;1940;51.052;13.678;2022-12-22T03:18:34;17.70;;;9.53;;
3849;SDS011;1940;51.052;13.678;2022-12-22T03:21:18;22.20;;;9.83;;
3849;SDS011;1940;51.052;13.678;2022-12-22T03:30:51;17.73;;;9.57;;
3849;SDS011;1940;51.052;13.678;2022-12-22T03:33:21;20.93;;;10.57;;
3849;SDS011;1940;51.052;13.678;2022-12-22T03:35:47;23.60;;;10.47;;
3849;SDS011;1940;51.052;13.678;2022-12-22T03:38:12;18.37;;;9.20;;
3849;SDS011;1940;51.052;13.678;2022-12-22T03:40:38;22.43;;;10.10;;
3849;SDS011;1940;51.052;13.678;2022-12-22T03:43:03;19.53;;;9.90;;
3849;SDS011;1940;51.052;13.678;2022-12-22T03:45:52;18.57;;;9.70;;
3849;SDS011;1940;51.052;13.678;2022-12-22T03:48:37;21.53;;;11.63;;
3849;SDS011;1940;51.052;13.678;2022-12-22T03:51:02;18.50;;;9.73;;
3849;SDS011;1940;51.052;13.678;2022-12-22T03:53:28;23.00;;;11.70;;
3849;SDS011;1940;51.052;13.678;2022-12-22T03:55:54;19.07;;;10.57;;
3849;SDS011;1940;51.052;13.678;2022-12-22T03:58:19;21.50;;;10.00;;
3849;SDS011;1940;51.052;13.678;2022-12-22T04:00:44;20.23;;;10.73;;
3849;SDS011;1940;51.052;13.678;2022-12-22T04:03:10;17.17;;;10.00;;
3849;SDS011;1940;51.052;13.678;2022-12-22T04:05:36;20.20;;;10.40;;
3849;SDS011;1940;51.052;13.678;2022-12-22T04:08:01;18.70;;;10.00;;
3849;SDS011;1940;51.052;13.678;2022-12-22T04:10:26;20.73;;;10.60;;
3849;SDS011;1940;51.052;13.678;2022-12-22T04:13:10;21.40;;;10.60;;
3849;SDS011;1940;51.052;13.678;2022-12-22T04:15:36;23.90;;;12.00;;
3849;SDS011;1940;51.052;13.678;2022-12-22T04:18:01;25.70;;;11.97;;
3849;SDS011;1940;51.052;13.678;2022-12-22T04:20:27;20.77;;;10.87;;
3849;SDS011;1940;51.052;13.678;2022-12-22T04:22:53;20.67;;;10.37;;
3849;SDS011;1940;51.052;13.678;2022-12-22T04:25:20;19.87;;;10.77;;
3849;SDS011;1940;51.052;13.678;2022-12-22T04:27:46;21.87;;;10.87;;
3849;SDS011;1940;51.052;13.678;2022-12-22T04:30:11;24.00;;;11.30;;
3849;SDS011;1940;51.052;13.678;2022-12-22T04:32:37;22.23;;;11.20;;
3849;SDS011;1940;51.052;13.678;2022-12-22T04:35:04;18.30;;;10.23;;
3849;SDS011;1940;51.052;13.678;2022-12-22T04:37:30;21.63;;;10.90;;
3849;SDS011;1940;51.052;13.678;2022-12-22T04:39:55;23.27;;;11.60;;
3849;SDS011;1940;51.052;13.678;2022-12-22T04:42:21;19.23;;;10.40;;
3849;SDS011;1940;51.052;13.678;2022-12-22T04:44:46;17.60;;;10.20;;
3849;SDS011;1940;51.052;13.678;2022-12-22T04:47:12;24.50;;;11.60;;
3849;SDS011;1940;51.052;13.678;2022-12-22T04:49:37;21.90;;;11.13;;
3849;SDS011;1940;51.052;13.678;2022-12-22T04:52:03;25.00;;;11.93;;
3849;SDS011;1940;51.052;13.678;2022-12-22T04:54:29;24.67;;;12.37;;
3849;SDS011;1940;51.052;13.678;2022-12-22T04:56:54;19.87;;;11.07;;
3849;SDS011;1940;51.052;13.678;2022-12-22T04:59:20;23.87;;;11.90;;
3849;SDS011;1940;51.052;13.678;2022-12-22T05:01:45;21.07;;;10.73;;
3849;SDS011;1940;51.052;13.678;2022-12-22T05:04:11;21.00;;;10.60;;
3849;SDS011;1940;51.052;13.678;2022-12-22T05:06:36;19.63;;;10.50;;
3849;SDS011;1940;51.052;13.678;2022-12-22T05:09:02;19.67;;;9.77;;
3849;SDS011;1940;51.052;13.678;2022-12-22T05:11:27;22.30;;;12.17;;
3849;SDS011;1940;51.052;13.678;2022-12-22T05:13:53;18.23;;;10.03;;
3849;SDS011;1940;51.052;13.678;2022-12-22T05:16:18;27.17;;;11.50;;
3849;SDS011;1940;51.052;13.678;2022-12-22T05:18:44;16.93;;;9.97;;
3849;SDS011;1940;51.052;13.678;2022-12-22T05:21:11;23.23;;;11.60;;
3849;SDS011;1940;51.052;13.678;2022-12-22T05:23:41;19.33;;;10.87;;
3849;SDS011;1940;51.052;13.678;2022-12-22T05:26:07;17.70;;;10.67;;
3849;SDS011;1940;51.052;13.678;2022-12-22T05:28:33;19.10;;;10.50;;
3849;SDS011;1940;51.052;13.678;2022-12-22T05:31:09;18.97;;;9.80;;
3849;SDS011;1940;51.052;13.678;2022-12-22T05:33:38;23.30;;;11.67;;
3849;SDS011;1940;51.052;13.678;2022-12-22T05:36:04;20.90;;;10.90;;
3849;SDS011;1940;51.052;13.678;2022-12-22T05:38:30;21.10;;;10.83;;
3849;SDS011;1940;51.052;13.678;2022-12-22T05:40:55;21.00;;;11.40;;
3849;SDS011;1940;51.052;13.678;2022-12-22T05:43:21;20.10;;;10.60;;
3849;SDS011;1940;51.052;13.678;2022-12-22T05:45:46;23.00;;;10.77;;
3849;SDS011;1940;51.052;13.678;2022-12-22T05:48:12;21.23;;;10.50;;
3849;SDS011;1940;51.052;13.678;2022-12-22T05:50:38;22.43;;;10.23;;
3849;SDS011;1940;51.052;13.678;2022-12-22T05:53:04;19.37;;;10.50;;
3849;SDS011;1940;51.052;13.678;2022-12-22T05:55:31;20.17;;;9.90;;
3849;SDS011;1940;51.052;13.678;2022-12-22T05:57:56;20.13;;;9.87;;
3849;SDS011;1940;51.052;13.678;2022-12-22T06:00:25;24.07;;;10.90;;
3849;SDS011;1940;51.052;13.678;2022-12-22T06:02:52;23.57;;;11.37;;
3849;SDS011;1940;51.052;13.678;2022-12-22T06:05:17;20.87;;;11.33;;
3849;SDS011;1940;51.052;13.678;2022-12-22T06:07:43;22.37;;;10.97;;
3849;SDS011;1940;51.052;13.678;2022-12-22T06:10:09;23.20;;;10.53;;
3849;SDS011;1940;51.052;13.678;2022-12-22T06:12:35;20.00;;;9.40;;
3849;SDS011;1940;51.052;13.678;2022-12-22T06:15:00;23.03;;;10.60;;
3849;SDS011;1940;51.052;13.678;2022-12-22T06:17:26;19.30;;;10.10;;
3849;SDS011;1940;51.052;13.678;2022-12-22T06:19:51;20.80;;;10.27;;
3849;SDS011;1940;51.052;13.678;2022-12-22T06:22:17;18.43;;;9.80;;
3849;SDS011;1940;51.052;13.678;2022-12-22T06:24:42;22.70;;;10.07;;
3849;SDS011;1940;51.052;13.678;2022-12-22T06:27:08;22.03;;;11.37;;
3849;SDS011;1940;51.052;13.678;2022-12-22T06:29:35;20.07;;;9.90;;
3849;SDS011;1940;51.052;13.678;2022-12-22T06:32:00;20.80;;;10.80;;
3849;SDS011;1940;51.052;13.678;2022-12-22T06:34:26;21.10;;;10.47;;
3849;SDS011;1940;51.052;13.678;2022-12-22T06:36:51;21.33;;;10.60;;
3849;SDS011;1940;51.052;13.678;2022-12-22T06:39:17;21.07;;;10.87;;
3849;SDS011;1940;51.052;13.678;2022-12-22T06:41:42;20.13;;;9.93;;
3849;SDS011;1940;51.052;13.678;2022-12-22T06:44:27;22.03;;;10.90;;
3849;SDS011;1940;51.052;13.678;2022-12-22T06:46:52;20.57;;;10.93;;
3849;SDS011;1940;51.052;13.678;2022-12-22T06:49:18;18.60;;;9.60;;
3849;SDS011;1940;51.052;13.678;2022-12-22T06:51:44;20.00;;;10.40;;
3849;SDS011;1940;51.052;13.678;2022-12-22T06:54:10;19.63;;;9.70;;
3849;SDS011;1940;51.052;13.678;2022-12-22T06:56:35;17.30;;;10.20;;
3849;SDS011;1940;51.052;13.678;2022-12-22T06:59:01;21.90;;;10.80;;
3849;SDS011;1940;51.052;13.678;2022-12-22T07:01:26;19.40;;;10.57;;
3849;SDS011;1940;51.052;13.678;2022-12-22T07:03:53;16.83;;;10.00;;
3849;SDS011;1940;51.052;13.678;2022-12-22T07:06:18;20.57;;;9.97;;
3849;SDS011;1940;51.052;13.678;2022-12-22T07:08:45;18.80;;;10.00;;
3849;SDS011;1940;51.052;13.678;2022-12-22T07:11:11;21.33;;;10.30;;
3849;SDS011;1940;51.052;13.678;2022-12-22T07:13:37;17.10;;;10.13;;
3849;SDS011;1940;51.052;13.678;2022-12-22T07:16:03;16.80;;;9.43;;
3849;SDS011;1940;51.052;13.678;2022-12-22T07:18:31;21.77;;;10.60;;
3849;SDS011;1940;51.052;13.678;2022-12-22T07:20:58;20.13;;;11.03;;
3849;SDS011;1940;51.052;13.678;2022-12-22T07:23:25;19.00;;;10.03;;
3849;SDS011;1940;51.052;13.678;2022-12-22T07:25:51;19.03;;;9.93;;
3849;SDS011;1940;51.052;13.678;2022-12-22T07:28:17;20.03;;;10.67;;
3849;SDS011;1940;51.052;13.678;2022-12-22T07:30:42;21.97;;;11.17;;
3849;SDS011;1940;51.052;13.678;2022-12-22T07:33:08;20.97;;;10.77;;
3849;SDS011;1940;51.052;13.678;2022-12-22T07:35:33;19.43;;;10.10;;
3849;SDS011;1940;51.052;13.678;2022-12-22T07:37:59;20.60;;;10.83;;
3849;SDS011;1940;51.052;13.678;2022-12-22T07:40:24;18.57;;;10.23;;
3849;SDS011;1940;51.052;13.678;2022-12-22T07:42:54;18.77;;;10.10;;
3849;SDS011;1940;51.052;13.678;2022-12-22T07:45:24;17.70;;;9.87;;
3849;SDS011;1940;51.052;13.678;2022-12-22T07:47:50;19.73;;;10.63;;
3849;SDS011;1940;51.052;13.678;2022-12-22T07:50:17;19.03;;;9.40;;
3849;SDS011;1940;51.052;13.678;2022-12-22T07:52:51;18.93;;;9.40;;
3849;SDS011;1940;51.052;13.678;2022-12-22T07:55:21;17.80;;;9.70;;
3849;SDS011;1940;51.052;13.678;2022-12-22T07:57:48;16.37;;;9.30;;
3849;SDS011;1940;51.052;13.678;2022-12-22T08:00:14;16.53;;;9.30;;
3849;SDS011;1940;51.052;13.678;2022-12-22T08:02:40;22.43;;;10.90;;
3849;SDS011;1940;51.052;13.678;2022-12-22T08:05:06;17.00;;;9.30;;
3849;SDS011;1940;51.052;13.678;2022-12-22T08:07:33;16.60;;;10.60;;
3849;SDS011;1940;51.052;13.678;2022-12-22T08:09:58;19.30;;;10.40;;
3849;SDS011;1940;51.052;13.678;2022-12-22T08:12:24;18.53;;;9.10;;
3849;SDS011;1940;51.052;13.678;2022-12-22T08:14:50;18.93;;;10.70;;
3849;SDS011;1940;51.052;13.678;2022-12-22T08:17:15;19.03;;;10.13;;
3849;SDS011;1940;51.052;13.678;2022-12-22T08:19:41;16.87;;;8.80;;
3849;SDS011;1940;51.052;13.678;2022-12-22T08:22:07;17.57;;;9.30;;
3849;SDS011;1940;51.052;13.678;2022-12-22T08:24:32;17.80;;;8.80;;
3849;SDS011;1940;51.052;13.678;2022-12-22T08:26:59;14.93;;;9.20;;
3849;SDS011;1940;51.052;13.678;2022-12-22T08:29:32;15.77;;;8.63;;
3849;SDS011;1940;51.052;13.678;2022-12-22T08:32:05;13.77;;;7.80;;
3849;SDS011;1940;51.052;13.678;2022-12-22T08:34:31;15.53;;;7.90;;
3849;SDS011;1940;51.052;13.678;2022-12-22T08:36:57;14.87;;;8.70;;
3849;SDS011;1940;51.052;13.678;2022-12-22T08:39:26;15.13;;;8.00;;
3849;SDS011;1940;51.052;13.678;2022-12-22T08:41:54;12.37;;;7.60;;
3849;SDS011;1940;51.052;13.678;2022-12-22T08:44:24;12.63;;;7.43;;
3849;SDS011;1940;51.052;13.678;2022-12-22T08:46:52;11.77;;;7.13;;
3849;SDS011;1940;51.052;13.678;2022-12-22T08:49:18;13.77;;;7.20;;
3849;SDS011;1940;51.052;13.678;2022-12-22T08:51:44;11.27;;;7.33;;
3849;SDS011;1940;51.052;13.678;2022-12-22T08:54:10;12.33;;;7.10;;
3849;SDS011;1940;51.052;13.678;2022-12-22T08:56:36;14.40;;;7.43;;
3849;SDS011;1940;51.052;13.678;2022-12-22T08:59:02;17.83;;;8.00;;
3849;SDS011;1940;51.052;13.678;2022-12-22T09:01:29;13.27;;;6.73;;
3849;SDS011;1940;51.052;13.678;2022-12-22T09:03:56;13.53;;;7.17;;
3849;SDS011;1940;51.052;13.678;2022-12-22T09:06:23;19.70;;;8.20;;
3849;SDS011;1940;51.052;13.678;2022-12-22T09:08:56;13.53;;;7.40;;
3849;SDS011;1940;51.052;13.678;2022-12-22T09:11:23;11.10;;;6.20;;
3849;SDS011;1940;51.052;13.678;2022-12-22T09:13:50;20.90;;;7.50;;
3849;SDS011;1940;51.052;13.678;2022-12-22T09:16:17;10.07;;;6.07;;
3849;SDS011;1940;51.052;13.678;2022-12-22T09:18:43;11.50;;;7.07;;
3849;SDS011;1940;51.052;13.678;2022-12-22T09:21:09;11.80;;;6.23;;
3849;SDS011;1940;51.052;13.678;2022-12-22T09:26:57;12.93;;;6.20;;
3849;SDS011;1940;51.052;13.678;2022-12-22T09:29:22;13.93;;;5.70;;
3849;SDS011;1940;51.052;13.678;2022-12-22T09:31:48;11.07;;;6.00;;
3849;SDS011;1940;51.052;13.678;2022-12-22T09:34:13;7.03;;;3.10;;
3849;SDS011;1940;51.052;13.678;2022-12-22T09:36:39;4.40;;;2.30;;
3849;SDS011;1940;51.052;13.678;2022-12-22T09:39:06;3.90;;;2.33;;
3849;SDS011;1940;51.052;13.678;2022-12-22T09:41:36;3.07;;;2.03;;
3849;SDS011;1940;51.052;13.678;2022-12-22T09:46:52;5.53;;;2.30;;
3849;SDS011;1940;51.052;13.678;2022-12-22T09:49:19;2.90;;;1.73;;
3849;SDS011;1940;51.052;13.678;2022-12-22T09:51:48;2.83;;;1.60;;
3849;SDS011;1940;51.052;13.678;2022-12-22T09:54:17;3.17;;;1.50;;
3849;SDS011;1940;51.052;13.678;2022-12-22T09:56:42;2.67;;;1.73;;
3849;SDS011;1940;51.052;13.678;2022-12-22T09:59:11;4.00;;;1.87;;
3849;SDS011;1940;51.052;13.678;2022-12-22T10:07:33;1.70;;;1.60;;
3849;SDS011;1940;51.052;13.678;2022-12-22T10:10:11;2.87;;;1.70;;
3849;SDS011;1940;51.052;13.678;2022-12-22T10:12:49;3.30;;;1.63;;
3849;SDS011;1940;51.052;13.678;2022-12-22T10:15:15;3.37;;;1.70;;
3849;SDS011;1940;51.052;13.678;2022-12-22T10:17:41;4.50;;;1.70;;
3849;SDS011;1940;51.052;13.678;2022-12-22T10:20:25;2.90;;;1.83;;
3849;SDS011;1940;51.052;13.678;2022-12-22T10:22:59;3.43;;;2.00;;
3849;SDS011;1940;51.052;13.678;2022-12-22T10:25:37;2.17;;;1.73;;
3849;SDS011;1940;51.052;13.678;2022-12-22T10:28:27;1.80;;;1.50;;
3849;SDS011;1940;51.052;13.678;2022-12-22T10:31:13;2.00;;;1.57;;
3849;SDS011;1940;51.052;13.678;2022-12-22T10:33:44;5.80;;;2.47;;
3849;SDS011;1940;51.052;13.678;2022-12-22T10:36:12;2.63;;;1.93;;
3849;SDS011;1940;51.052;13.678;2022-12-22T10:38:51;1.30;;;1.20;;
3849;SDS011;1940;51.052;13.678;2022-12-22T10:41:24;2.60;;;1.30;;
3849;SDS011;1940;51.052;13.678;2022-12-22T10:43:57;1.30;;;1.20;;
3849;SDS011;1940;51.052;13.678;2022-12-22T10:49:09;1.50;;;1.07;;
3849;SDS011;1940;51.052;13.678;2022-12-22T10:51:53;1.30;;;1.00;;
3849;SDS011;1940;51.052;13.678;2022-12-22T10:54:31;1.13;;;1.00;;
3849;SDS011;1940;51.052;13.678;2022-12-22T10:59:27;1.53;;;1.30;;
3849;SDS011;1940;51.052;13.678;2022-12-22T11:01:52;1.40;;;0.97;;
3849;SDS011;1940;51.052;13.678;2022-12-22T11:06:48;1.80;;;1.10;;
3849;SDS011;1940;51.052;13.678;2022-12-22T11:09:14;1.50;;;1.03;;
3849;SDS011;1940;51.052;13.678;2022-12-22T11:11:45;2.03;;;0.90;;
3849;SDS011;1940;51.052;13.678;2022-12-22T11:14:26;1.20;;;1.00;;
3849;SDS011;1940;51.052;13.678;2022-12-22T11:25:40;1.17;;;1.00;;
3849;SDS011;1940;51.052;13.678;2022-12-22T11:28:37;0.90;;;0.80;;
3849;SDS011;1940;51.052;13.678;2022-12-22T11:36:27;1.97;;;1.03;;
3849;SDS011;1940;51.052;13.678;2022-12-22T11:39:14;2.73;;;1.17;;
3849;SDS011;1940;51.052;13.678;2022-12-22T11:50:07;1.40;;;1.00;;
3849;SDS011;1940;51.052;13.678;2022-12-22T11:55:36;0.90;;;0.80;;
3849;SDS011;1940;51.052;13.678;2022-12-22T11:58:25;2.97;;;1.30;;
3849;SDS011;1940;51.052;13.678;2022-12-22T12:01:06;2.07;;;1.20;;
3849;SDS011;1940;51.052;13.678;2022-12-22T12:09:24;1.97;;;1.20;;
3849;SDS011;1940;51.052;13.678;2022-12-22T12:20:42;4.57;;;1.30;;
3849;SDS011;1940;51.052;13.678;2022-12-22T12:23:25;1.33;;;0.90;;
3849;SDS011;1940;51.052;13.678;2022-12-22T12:26:21;2.43;;;0.90;;
3849;SDS011;1940;51.052;13.678;2022-12-22T12:31:48;1.30;;;0.87;;
3849;SDS011;1940;51.052;13.678;2022-12-22T12:34:25;2.20;;;1.00;;
3849;SDS011;1940;51.052;13.678;2022-12-22T12:37:01;1.40;;;1.00;;
3849;SDS011;1940;51.052;13.678;2022-12-22T12:42:12;1.10;;;0.90;;
3849;SDS011;1940;51.052;13.678;2022-12-22T12:44:51;1.60;;;1.07;;
3849;SDS011;1940;51.052;13.678;2022-12-22T12:49:54;1.67;;;1.27;;
3849;SDS011;1940;51.052;13.678;2022-12-22T12:57:49;2.70;;;1.47;;
3849;SDS011;1940;51.052;13.678;2022-12-22T13:00:57;1.47;;;1.03;;
3849;SDS011;1940;51.052;13.678;2022-12-22T13:05:50;1.37;;;1.10;;
3849;SDS011;1940;51.052;13.678;2022-12-22T13:23:39;1.37;;;0.80;;
3849;SDS011;1940;51.052;13.678;2022-12-22T13:26:17;2.03;;;1.10;;
3849;SDS011;1940;51.052;13.678;2022-12-22T13:28:49;2.87;;;1.10;;
3849;SDS011;1940;51.052;13.678;2022-12-22T13:31:20;1.30;;;0.90;;
3849;SDS011;1940;51.052;13.678;2022-12-22T13:34:00;0.80;;;0.70;;
3849;SDS011;1940;51.052;13.678;2022-12-22T13:36:30;3.00;;;1.10;;
3849;SDS011;1940;51.052;13.678;2022-12-22T13:39:04;1.53;;;1.07;;
3849;SDS011;1940;51.052;13.678;2022-12-22T13:41:35;1.10;;;1.00;;
3849;SDS011;1940;51.052;13.678;2022-12-22T13:44:10;1.00;;;0.80;;
3849;SDS011;1940;51.052;13.678;2022-12-22T13:47:00;1.10;;;1.00;;
3849;SDS011;1940;51.052;13.678;2022-12-22T13:49:31;1.43;;;0.90;;
3849;SDS011;1940;51.052;13.678;2022-12-22T13:51:59;2.30;;;0.90;;
3849;SDS011;1940;51.052;13.678;2022-12-22T13:54:28;1.13;;;0.80;;
3849;SDS011;1940;51.052;13.678;2022-12-22T13:56:57;1.30;;;0.87;;
3849;SDS011;1940;51.052;13.678;2022-12-22T13:59:44;1.03;;;0.87;;
3849;SDS011;1940;51.052;13.678;2022-12-22T14:02:16;5.47;;;1.63;;
3849;SDS011;1940;51.052;13.678;2022-12-22T14:04:44;1.90;;;1.00;;
3849;SDS011;1940;51.052;13.678;2022-12-22T14:07:28;1.63;;;1.03;;
3849;SDS011;1940;51.052;13.678;2022-12-22T14:09:54;1.10;;;1.00;;
3849;SDS011;1940;51.052;13.678;2022-12-22T14:12:21;0.93;;;0.80;;
3849;SDS011;1940;51.052;13.678;2022-12-22T14:14:53;1.27;;;1.03;;
3849;SDS011;1940;51.052;13.678;2022-12-22T14:17:30;1.93;;;1.30;;
3849;SDS011;1940;51.052;13.678;2022-12-22T14:19:59;1.20;;;1.00;;
3849;SDS011;1940;51.052;13.678;2022-12-22T14:23:20;1.93;;;1.10;;
3849;SDS011;1940;51.052;13.678;2022-12-22T14:25:53;1.33;;;0.90;;
3849;SDS011;1940;51.052;13.678;2022-12-22T14:28:21;1.30;;;0.97;;
3849;SDS011;1940;51.052;13.678;2022-12-22T14:30:57;3.80;;;1.57;;
3849;SDS011;1940;51.052;13.678;2022-12-22T14:33:29;4.30;;;1.20;;
3849;SDS011;1940;51.052;13.678;2022-12-22T14:41:31;2.47;;;1.40;;
3849;SDS011;1940;51.052;13.678;2022-12-22T14:44:27;1.33;;;0.93;;
3849;SDS011;1940;51.052;13.678;2022-12-22T14:49:57;1.10;;;0.90;;
3849;SDS011;1940;51.052;13.678;2022-12-22T14:54:59;1.50;;;0.97;;
3849;SDS011;1940;51.052;13.678;2022-12-22T14:57:30;1.07;;;0.90;;
3849;SDS011;1940;51.052;13.678;2022-12-22T15:00:44;1.90;;;1.07;;
3849;SDS011;1940;51.052;13.678;2022-12-22T15:02:59;2.10;;;1.00;;
3849;SDS011;1940;51.052;13.678;2022-12-22T15:05:27;1.30;;;0.90;;
3849;SDS011;1940;51.052;13.678;2022-12-22T15:07:55;2.57;;;1.10;;
3849;SDS011;1940;51.052;13.678;2022-12-22T15:10:22;1.10;;;0.93;;
3849;SDS011;1940;51.052;13.678;2022-12-22T15:12:56;1.73;;;1.23;;
3849;SDS011;1940;51.052;13.678;2022-12-22T15:15:23;1.30;;;1.20;;
3849;SDS011;1940;51.052;13.678;2022-12-22T15:17:51;1.23;;;1.00;;
3849;SDS011;1940;51.052;13.678;2022-12-22T15:20:18;2.60;;;1.20;;
3849;SDS011;1940;51.052;13.678;2022-12-22T15:22:46;2.93;;;1.20;;
3849;SDS011;1940;51.052;13.678;2022-12-22T15:25:14;1.30;;;1.00;;
3849;SDS011;1940;51.052;13.678;2022-12-22T15:27:42;3.13;;;0.93;;
3849;SDS011;1940;51.052;13.678;2022-12-22T15:30:08;2.40;;;0.90;;
3849;SDS011;1940;51.052;13.678;2022-12-22T15:32:35;1.40;;;1.00;;
3849;SDS011;1940;51.052;13.678;2022-12-22T15:35:01;1.53;;;1.00;;
3849;SDS011;1940;51.052;13.678;2022-12-22T15:37:27;3.50;;;1.17;;
3849;SDS011;1940;51.052;13.678;2022-12-22T15:39:53;2.80;;;1.37;;
3849;SDS011;1940;51.052;13.678;2022-12-22T15:42:19;3.50;;;1.27;;
3849;SDS011;1940;51.052;13.678;2022-12-22T15:44:44;1.50;;;1.30;;
3849;SDS011;1940;51.052;13.678;2022-12-22T15:47:10;3.03;;;1.13;;
3849;SDS011;1940;51.052;13.678;2022-12-22T15:49:36;1.33;;;1.20;;
3849;SDS011;1940;51.052;13.678;2022-12-22T15:52:02;1.53;;;1.27;;
3849;SDS011;1940;51.052;13.678;2022-12-22T15:54:30;1.23;;;1.13;;
3849;SDS011;1940;51.052;13.678;2022-12-22T15:56:59;1.80;;;1.40;;
3849;SDS011;1940;51.052;13.678;2022-12-22T15:59:26;2.90;;;1.30;;
3849;SDS011;1940;51.052;13.678;2022-12-22T16:01:53;3.23;;;1.20;;
3849;SDS011;1940;51.052;13.678;2022-12-22T16:04:21;2.17;;;1.47;;
3849;SDS011;1940;51.052;13.678;2022-12-22T16:06:47;3.20;;;1.43;;
3849;SDS011;1940;51.052;13.678;2022-12-22T16:09:17;1.73;;;1.43;;
3849;SDS011;1940;51.052;13.678;2022-12-22T16:11:47;1.80;;;1.53;;
3849;SDS011;1940;51.052;13.678;2022-12-22T16:14:13;2.90;;;1.60;;
3849;SDS011;1940;51.052;13.678;2022-12-22T16:16:40;2.73;;;1.43;;
3849;SDS011;1940;51.052;13.678;2022-12-22T16:19:07;2.07;;;1.50;;
3849;SDS011;1940;51.052;13.678;2022-12-22T16:21:39;7.10;;;1.90;;
3849;SDS011;1940;51.052;13.678;2022-12-22T16:24:07;3.60;;;1.80;;
3849;SDS011;1940;51.052;13.678;2022-12-22T16:27:00;3.90;;;1.90;;
3849;SDS011;1940;51.052;13.678;2022-12-22T16:29:26;3.07;;;2.20;;
3849;SDS011;1940;51.052;13.678;2022-12-22T16:31:51;3.40;;;2.50;;
3849;SDS011;1940;51.052;13.678;2022-12-22T16:34:17;3.27;;;2.50;;
3849;SDS011;1940;51.052;13.678;2022-12-22T16:36:43;6.13;;;3.93;;
3849;SDS011;1940;51.052;13.678;2022-12-22T16:39:08;3.40;;;2.77;;
3849;SDS011;1940;51.052;13.678;2022-12-22T16:41:34;4.10;;;2.80;;
3849;SDS011;1940;51.052;13.678;2022-12-22T16:44:00;6.10;;;3.93;;
3849;SDS011;1940;51.052;13.678;2022-12-22T16:46:34;5.87;;;3.60;;
3849;SDS011;1940;51.052;13.678;2022-12-22T16:49:01;8.03;;;5.10;;
3849;SDS011;1940;51.052;13.678;2022-12-22T16:51:31;7.80;;;5.40;;
3849;SDS011;1940;51.052;13.678;2022-12-22T16:53:58;12.07;;;6.10;;
3849;SDS011;1940;51.052;13.678;2022-12-22T16:56:28;9.10;;;5.90;;
3849;SDS011;1940;51.052;13.678;2022-12-22T16:58:54;10.40;;;6.30;;
3849;SDS011;1940;51.052;13.678;2022-12-22T17:04:16;10.60;;;6.60;;
3849;SDS011;1940;51.052;13.678;2022-12-22T17:06:43;11.87;;;6.60;;
3849;SDS011;1940;51.052;13.678;2022-12-22T17:09:12;18.63;;;8.20;;
3849;SDS011;1940;51.052;13.678;2022-12-22T17:11:43;10.87;;;6.20;;
3849;SDS011;1940;51.052;13.678;2022-12-22T17:14:26;12.90;;;7.30;;
3849;SDS011;1940;51.052;13.678;2022-12-22T17:16:55;12.40;;;7.37;;
3849;SDS011;1940;51.052;13.678;2022-12-22T17:19:21;12.07;;;6.80;;
3849;SDS011;1940;51.052;13.678;2022-12-22T17:21:47;12.20;;;6.00;;
3849;SDS011;1940;51.052;13.678;2022-12-22T17:24:13;12.47;;;7.00;;